createdAt,value
2018-04-26T00:01:02.763Z,21.40
2018-04-26T00:02:07.873Z,21.40
2018-04-26T00:03:12.920Z,21.40
2018-04-26T00:04:17.638Z,21.40
2018-04-26T00:05:22.451Z,21.30
2018-04-26T00:06:27.360Z,21.40
2018-04-26T00:07:32.497Z,21.40
2018-04-26T00:08:37.542Z,21.40
2018-04-26T00:09:42.628Z,21.40
2018-04-26T00:10:47.516Z,21.40
2018-04-26T00:11:52.387Z,21.40
2018-04-26T00:12:57.304Z,21.40
2018-04-26T00:14:02.291Z,21.40
2018-04-26T00:15:07.254Z,21.40
2018-04-26T00:16:12.209Z,21.40
2018-04-26T00:17:17.153Z,21.30
2018-04-26T00:18:22.025Z,21.40
2018-04-26T00:19:26.911Z,21.40
2018-04-26T00:20:31.855Z,21.40
2018-04-26T00:21:36.871Z,21.40
2018-04-26T00:22:41.703Z,21.40
2018-04-26T00:23:46.726Z,21.40
2018-04-26T00:24:51.657Z,21.40
2018-04-26T00:25:56.571Z,21.40
2018-04-26T00:27:01.465Z,21.50
2018-04-26T00:28:06.542Z,21.40
2018-04-26T00:29:11.553Z,21.40
2018-04-26T00:30:16.525Z,21.40
2018-04-26T00:31:21.520Z,21.40
2018-04-26T00:32:26.408Z,21.30
2018-04-26T00:33:31.286Z,21.40
2018-04-26T00:34:36.287Z,21.40
2018-04-26T00:35:41.161Z,21.40
2018-04-26T00:36:45.879Z,21.40
2018-04-26T00:37:50.582Z,21.40
2018-04-26T00:38:55.487Z,21.40
2018-04-26T00:40:00.400Z,21.40
2018-04-26T00:41:05.144Z,21.40
2018-04-26T00:42:10.089Z,21.40
2018-04-26T00:43:14.841Z,21.40
2018-04-26T00:44:19.888Z,21.40
2018-04-26T00:45:24.839Z,21.40
2018-04-26T00:46:29.618Z,21.30
2018-04-26T00:47:34.497Z,21.40
2018-04-26T00:48:39.493Z,21.40
2018-04-26T00:49:44.440Z,21.40
2018-04-26T00:50:49.339Z,21.40
2018-04-26T00:51:54.246Z,21.40
2018-04-26T00:52:59.079Z,21.40
2018-04-26T00:54:04.129Z,21.40
2018-04-26T00:55:08.855Z,21.40
2018-04-26T00:56:13.810Z,21.40
2018-04-26T00:57:18.720Z,21.40
2018-04-26T00:58:23.495Z,21.40
2018-04-26T00:59:28.393Z,21.40
2018-04-26T01:00:33.321Z,21.40
2018-04-26T01:01:38.222Z,21.40
2018-04-26T01:02:43.069Z,21.30
2018-04-26T01:03:47.969Z,21.40
2018-04-26T01:04:52.912Z,21.40
2018-04-26T01:05:57.670Z,21.40
2018-04-26T01:07:02.585Z,21.40
2018-04-26T01:08:07.571Z,21.40
2018-04-26T01:09:12.523Z,21.40
2018-04-26T01:10:17.662Z,21.40
2018-04-26T01:11:22.554Z,21.40
2018-04-26T01:12:27.499Z,21.40
2018-04-26T01:13:32.381Z,21.40
2018-04-26T01:14:37.308Z,21.40
2018-04-26T01:15:42.362Z,21.40
2018-04-26T01:16:47.296Z,21.40
2018-04-26T01:17:52.169Z,21.40
2018-04-26T01:18:57.027Z,21.40
2018-04-26T01:20:02.051Z,21.40
2018-04-26T01:21:06.879Z,21.40
2018-04-26T01:22:11.971Z,21.30
2018-04-26T01:23:16.626Z,21.40
2018-04-26T01:24:21.718Z,21.40
2018-04-26T01:25:26.663Z,21.40
2018-04-26T01:26:31.323Z,21.40
2018-04-26T01:27:36.420Z,21.40
2018-04-26T01:28:41.528Z,21.40
2018-04-26T01:29:46.378Z,21.40
2018-04-26T01:30:51.347Z,21.40
2018-04-26T01:31:56.456Z,21.40
2018-04-26T01:33:01.378Z,21.40
2018-04-26T01:34:06.349Z,21.40
2018-04-26T01:35:11.093Z,21.40
2018-04-26T01:36:16.146Z,21.40
2018-04-26T01:37:21.170Z,21.40
2018-04-26T01:38:25.829Z,21.40
2018-04-26T01:39:30.718Z,21.40
2018-04-26T01:40:35.395Z,21.40
2018-04-26T01:41:40.467Z,21.40
2018-04-26T01:42:45.390Z,21.40
2018-04-26T01:43:50.171Z,21.40
2018-04-26T01:44:55.126Z,21.40
2018-04-26T01:45:59.873Z,21.40
2018-04-26T01:47:04.869Z,21.40
2018-04-26T01:48:09.547Z,21.40
2018-04-26T01:49:14.405Z,21.40
2018-04-26T01:50:19.451Z,21.40
2018-04-26T01:51:24.184Z,21.40
2018-04-26T01:52:29.023Z,21.40
2018-04-26T01:53:34.137Z,21.40
2018-04-26T01:54:38.892Z,21.40
2018-04-26T01:55:43.647Z,21.40
2018-04-26T01:56:48.621Z,21.40
2018-04-26T01:57:53.506Z,21.40
2018-04-26T01:58:58.432Z,21.40
2018-04-26T02:00:03.496Z,21.40
2018-04-26T02:01:08.396Z,21.40
2018-04-26T02:02:13.141Z,21.40
2018-04-26T02:03:18.088Z,21.40
2018-04-26T02:04:22.814Z,21.40
2018-04-26T02:05:27.720Z,21.40
2018-04-26T02:06:32.831Z,21.30
2018-04-26T02:07:37.933Z,21.40
2018-04-26T02:08:42.659Z,21.40
2018-04-26T02:09:47.688Z,21.40
2018-04-26T02:10:52.657Z,21.40
2018-04-26T02:11:57.707Z,21.40
2018-04-26T02:13:02.819Z,21.40
2018-04-26T02:14:07.715Z,21.40
2018-04-26T02:15:12.645Z,21.40
2018-04-26T02:16:17.367Z,21.40
2018-04-26T02:17:22.269Z,21.40
2018-04-26T02:18:27.161Z,21.40
2018-04-26T02:19:32.078Z,21.40
2018-04-26T02:20:37.115Z,21.40
2018-04-26T02:21:41.962Z,21.40
2018-04-26T02:22:46.705Z,21.40
2018-04-26T02:23:51.368Z,21.40
2018-04-26T02:24:56.246Z,21.40
2018-04-26T02:26:01.100Z,21.40
2018-04-26T02:27:05.950Z,21.40
2018-04-26T02:28:10.896Z,21.40
2018-04-26T02:29:15.654Z,21.40
2018-04-26T02:30:20.457Z,21.40
2018-04-26T02:31:25.309Z,21.40
2018-04-26T02:32:30.010Z,21.40
2018-04-26T02:33:34.942Z,21.40
2018-04-26T02:34:39.865Z,21.40
2018-04-26T02:35:44.872Z,21.40
2018-04-26T02:36:49.842Z,21.40
2018-04-26T02:37:54.793Z,21.40
2018-04-26T02:38:59.753Z,21.40
2018-04-26T02:40:04.697Z,21.40
2018-04-26T02:41:09.573Z,21.40
2018-04-26T02:42:14.471Z,21.40
2018-04-26T02:43:19.391Z,21.40
2018-04-26T02:44:24.264Z,21.30
2018-04-26T02:45:29.351Z,21.40
2018-04-26T02:46:34.292Z,21.40
2018-04-26T02:47:38.992Z,21.40
2018-04-26T02:48:44.172Z,21.40
2018-04-26T02:49:49.309Z,21.40
2018-04-26T02:50:54.255Z,21.40
2018-04-26T02:51:59.231Z,21.40
2018-04-26T02:53:04.134Z,21.40
2018-04-26T02:54:09.110Z,21.40
2018-04-26T02:55:14.073Z,21.40
2018-04-26T02:56:19.288Z,21.40
2018-04-26T02:57:24.192Z,21.40
2018-04-26T02:58:29.140Z,21.40
2018-04-26T02:59:34.240Z,21.40
2018-04-26T03:00:39.323Z,21.30
2018-04-26T03:01:44.351Z,21.40
2018-04-26T03:02:49.544Z,21.40
2018-04-26T03:03:54.700Z,21.40
2018-04-26T03:04:59.796Z,21.40
2018-04-26T03:06:04.671Z,21.40
2018-04-26T03:07:09.813Z,21.40
2018-04-26T03:08:14.879Z,21.40
2018-04-26T03:09:19.581Z,21.40
2018-04-26T03:10:24.425Z,21.40
2018-04-26T03:11:29.562Z,21.40
2018-04-26T03:12:34.340Z,21.40
2018-04-26T03:13:39.231Z,21.40
2018-04-26T03:14:43.965Z,21.40
2018-04-26T03:15:48.944Z,21.40
2018-04-26T03:16:53.968Z,21.40
2018-04-26T03:17:58.887Z,21.40
2018-04-26T03:19:03.977Z,21.40
2018-04-26T03:20:09.081Z,21.40
2018-04-26T03:21:13.963Z,21.40
2018-04-26T03:22:18.770Z,21.40
2018-04-26T03:23:23.706Z,21.40
2018-04-26T03:24:28.621Z,21.40
2018-04-26T03:25:33.491Z,21.40
2018-04-26T03:26:38.605Z,21.40
2018-04-26T03:27:43.548Z,21.40
2018-04-26T03:28:48.732Z,21.40
2018-04-26T03:29:53.680Z,21.40
2018-04-26T03:30:58.670Z,21.40
2018-04-26T03:32:03.605Z,21.40
2018-04-26T03:33:08.537Z,21.40
2018-04-26T03:34:13.424Z,21.40
2018-04-26T03:35:18.175Z,21.40
2018-04-26T03:36:23.199Z,21.40
2018-04-26T03:37:27.978Z,21.40
2018-04-26T03:38:32.848Z,21.40
2018-04-26T03:39:37.736Z,21.40
2018-04-26T03:40:42.649Z,21.40
2018-04-26T03:41:47.438Z,21.40
2018-04-26T03:42:52.529Z,21.40
2018-04-26T03:43:57.471Z,21.40
2018-04-26T03:45:02.433Z,21.40
2018-04-26T03:46:07.070Z,21.40
2018-04-26T03:47:12.230Z,21.40
2018-04-26T03:48:16.943Z,21.40
2018-04-26T03:49:21.719Z,21.40
2018-04-26T03:50:26.598Z,21.40
2018-04-26T03:51:31.399Z,21.40
2018-04-26T03:52:36.327Z,21.40
2018-04-26T03:53:41.072Z,21.40
2018-04-26T03:54:46.185Z,21.40
2018-04-26T03:55:51.225Z,21.40
2018-04-26T03:56:56.002Z,21.40
2018-04-26T03:58:00.802Z,21.40
2018-04-26T03:59:05.877Z,21.40
2018-04-26T04:00:10.963Z,21.40
2018-04-26T04:01:16.006Z,21.40
2018-04-26T04:02:20.847Z,21.40
2018-04-26T04:03:25.731Z,21.40
2018-04-26T04:04:30.531Z,21.40
2018-04-26T04:05:35.424Z,21.40
2018-04-26T04:06:40.301Z,21.40
2018-04-26T04:07:44.980Z,21.40
2018-04-26T04:08:49.845Z,21.40
2018-04-26T04:09:54.798Z,21.40
2018-04-26T04:10:59.612Z,21.40
2018-04-26T04:12:04.565Z,21.40
2018-04-26T04:13:09.559Z,21.40
2018-04-26T04:14:14.335Z,21.40
2018-04-26T04:15:19.227Z,21.40
2018-04-26T04:16:24.231Z,21.40
2018-04-26T04:17:29.327Z,21.40
2018-04-26T04:18:34.499Z,21.40
2018-04-26T04:19:39.205Z,21.40
2018-04-26T04:20:44.068Z,21.40
2018-04-26T04:21:48.987Z,21.40
2018-04-26T04:22:53.708Z,21.40
2018-04-26T04:23:58.744Z,21.40
2018-04-26T04:25:03.539Z,21.40
2018-04-26T04:26:08.399Z,21.40
2018-04-26T04:27:13.348Z,21.40
2018-04-26T04:28:18.230Z,21.40
2018-04-26T04:29:22.863Z,21.40
2018-04-26T04:30:28.498Z,21.40
2018-04-26T04:31:33.389Z,21.30
2018-04-26T04:32:38.503Z,21.30
2018-04-26T04:33:43.485Z,21.30
2018-04-26T04:34:48.369Z,21.20
2018-04-26T04:35:53.504Z,21.20
2018-04-26T04:36:58.553Z,21.20
2018-04-26T04:38:03.491Z,21.20
2018-04-26T04:39:08.271Z,21.20
2018-04-26T04:40:13.217Z,21.10
2018-04-26T04:41:18.356Z,21.10
2018-04-26T04:42:23.553Z,21.10
2018-04-26T04:43:28.668Z,21.10
2018-04-26T04:44:33.853Z,21.10
2018-04-26T04:45:38.757Z,21.00
2018-04-26T04:46:43.681Z,21.00
2018-04-26T04:47:49.752Z,21.00
2018-04-26T04:48:54.604Z,21.00
2018-04-26T04:49:59.620Z,21.00
2018-04-26T04:51:04.983Z,21.00
2018-04-26T04:52:10.121Z,21.00
2018-04-26T04:53:15.499Z,21.00
2018-04-26T04:54:20.698Z,21.00
2018-04-26T04:55:29.762Z,21.00
2018-04-26T04:56:35.193Z,21.00
2018-04-26T04:57:40.401Z,21.00
2018-04-26T04:58:45.357Z,21.00
2018-04-26T04:59:50.683Z,21.00
2018-04-26T05:00:55.833Z,21.00
2018-04-26T05:02:01.128Z,21.00
2018-04-26T05:03:06.090Z,21.00
2018-04-26T05:04:11.138Z,21.00
2018-04-26T05:05:16.121Z,20.90
2018-04-26T05:06:21.297Z,20.90
2018-04-26T05:07:26.552Z,21.00
2018-04-26T05:08:31.444Z,20.90
2018-04-26T05:09:36.487Z,21.00
2018-04-26T05:10:41.435Z,21.00
2018-04-26T05:11:46.461Z,21.00
2018-04-26T05:12:51.600Z,20.90
2018-04-26T05:13:56.656Z,20.90
2018-04-26T05:15:01.536Z,20.90
2018-04-26T05:16:06.910Z,20.90
2018-04-26T05:17:11.984Z,20.90
2018-04-26T05:18:17.052Z,20.90
2018-04-26T05:19:21.958Z,20.90
2018-04-26T05:20:27.024Z,20.90
2018-04-26T05:21:31.994Z,20.90
2018-04-26T05:22:37.218Z,20.90
2018-04-26T05:23:42.345Z,20.90
2018-04-26T05:24:47.174Z,20.90
2018-04-26T05:25:52.027Z,20.90
2018-04-26T05:26:56.688Z,20.90
2018-04-26T05:28:01.435Z,20.90
2018-04-26T05:29:06.313Z,20.90
2018-04-26T05:30:11.437Z,20.90
2018-04-26T05:31:16.556Z,20.90
2018-04-26T05:32:21.564Z,20.90
2018-04-26T05:33:26.638Z,20.90
2018-04-26T05:34:31.744Z,20.90
2018-04-26T05:35:36.778Z,20.90
2018-04-26T05:36:41.856Z,21.00
2018-04-26T05:37:46.915Z,21.00
2018-04-26T05:38:51.952Z,21.00
2018-04-26T05:39:56.758Z,21.00
2018-04-26T05:41:03.621Z,21.00
2018-04-26T05:42:08.680Z,21.00
2018-04-26T05:43:13.614Z,21.00
2018-04-26T05:44:18.742Z,21.10
2018-04-26T05:45:24.005Z,21.10
2018-04-26T05:46:28.863Z,21.00
2018-04-26T05:47:34.259Z,21.10
2018-04-26T05:48:39.089Z,21.10
2018-04-26T05:49:44.088Z,21.00
2018-04-26T05:50:49.206Z,21.10
2018-04-26T05:51:54.231Z,21.00
2018-04-26T05:52:59.364Z,21.00
2018-04-26T05:54:04.203Z,21.10
2018-04-26T05:55:09.209Z,21.00
2018-04-26T05:56:14.356Z,21.00
2018-04-26T05:57:19.174Z,21.00
2018-04-26T05:58:24.390Z,21.10
2018-04-26T05:59:29.360Z,21.10
2018-04-26T06:00:34.371Z,21.00
2018-04-26T06:01:39.611Z,21.10
2018-04-26T06:02:44.594Z,21.10
2018-04-26T06:03:49.569Z,21.00
2018-04-26T06:04:57.574Z,21.10
2018-04-26T06:06:02.720Z,21.10
2018-04-26T06:07:07.819Z,21.00
2018-04-26T06:08:12.819Z,21.10
2018-04-26T06:09:17.683Z,21.00
2018-04-26T06:10:22.885Z,21.00
2018-04-26T06:11:27.729Z,21.00
2018-04-26T06:12:32.726Z,21.10
2018-04-26T06:13:37.834Z,21.00
2018-04-26T06:14:42.935Z,21.10
2018-04-26T06:15:47.733Z,21.10
2018-04-26T06:16:52.940Z,21.00
2018-04-26T06:17:57.990Z,21.00
2018-04-26T06:19:03.228Z,21.00
2018-04-26T06:20:08.246Z,21.00
2018-04-26T06:21:13.405Z,21.00
2018-04-26T06:22:18.768Z,21.00
2018-04-26T06:23:23.736Z,21.00
2018-04-26T06:24:28.782Z,20.90
2018-04-26T06:25:33.697Z,20.90
2018-04-26T06:26:38.633Z,20.90
2018-04-26T06:27:43.473Z,20.90
2018-04-26T06:28:48.484Z,20.90
2018-04-26T06:29:53.550Z,20.90
2018-04-26T06:30:58.651Z,20.90
2018-04-26T06:32:03.579Z,20.90
2018-04-26T06:33:08.654Z,20.90
2018-04-26T06:34:13.503Z,20.90
2018-04-26T06:35:18.635Z,20.90
2018-04-26T06:36:23.509Z,20.90
2018-04-26T06:37:28.347Z,20.90
2018-04-26T06:38:33.299Z,20.90
2018-04-26T06:39:38.455Z,20.90
2018-04-26T06:40:43.331Z,20.80
2018-04-26T06:41:48.491Z,20.90
2018-04-26T06:42:53.642Z,20.90
2018-04-26T06:43:58.823Z,20.90
2018-04-26T06:45:03.741Z,20.90
2018-04-26T06:46:08.789Z,20.90
2018-04-26T06:47:13.617Z,20.80
2018-04-26T06:48:18.843Z,20.80
2018-04-26T06:49:23.592Z,20.80
2018-04-26T06:50:28.668Z,20.80
2018-04-26T06:51:33.491Z,20.80
2018-04-26T06:52:38.377Z,20.80
2018-04-26T06:53:43.254Z,20.80
2018-04-26T06:54:48.170Z,20.80
2018-04-26T06:55:53.212Z,20.80
2018-04-26T06:56:58.024Z,20.80
2018-04-26T06:58:03.160Z,20.80
2018-04-26T06:59:08.037Z,20.80
2018-04-26T07:00:13.000Z,20.80
2018-04-26T07:01:17.869Z,20.80
2018-04-26T07:02:22.764Z,20.80
2018-04-26T07:03:27.954Z,20.80
2018-04-26T07:04:32.919Z,20.80
2018-04-26T07:05:37.872Z,20.80
2018-04-26T07:06:42.649Z,20.80
2018-04-26T07:07:47.574Z,20.80
2018-04-26T07:08:52.359Z,20.80
2018-04-26T07:09:57.346Z,20.80
2018-04-26T07:11:02.273Z,20.80
2018-04-26T07:12:07.376Z,20.80
2018-04-26T07:13:12.370Z,20.80
2018-04-26T07:14:17.223Z,20.80
2018-04-26T07:15:22.291Z,20.80
2018-04-26T07:16:27.390Z,20.80
2018-04-26T07:17:32.034Z,20.80
2018-04-26T07:18:52.408Z,20.80
2018-04-26T07:19:57.994Z,20.80
2018-04-26T07:21:03.111Z,20.80
2018-04-26T07:22:08.083Z,20.80
2018-04-26T07:23:12.763Z,20.80
2018-04-26T07:24:17.859Z,20.80
2018-04-26T07:25:22.534Z,20.80
2018-04-26T07:26:27.367Z,20.80
2018-04-26T07:27:32.099Z,20.70
2018-04-26T07:28:37.096Z,20.80
2018-04-26T07:29:42.035Z,20.80
2018-04-26T07:30:46.959Z,20.80
2018-04-26T07:31:51.645Z,20.80
2018-04-26T07:32:56.397Z,20.70
2018-04-26T07:34:01.762Z,20.70
2018-04-26T07:35:06.417Z,20.70
2018-04-26T07:36:11.308Z,20.70
2018-04-26T07:37:16.177Z,20.70
2018-04-26T07:38:20.997Z,20.70
2018-04-26T07:39:25.889Z,20.70
2018-04-26T07:40:30.625Z,20.80
2018-04-26T07:41:35.749Z,20.80
2018-04-26T07:42:40.699Z,20.70
2018-04-26T07:43:45.466Z,20.80
2018-04-26T07:44:50.450Z,20.70
2018-04-26T07:45:55.873Z,20.80
2018-04-26T07:47:00.921Z,20.80
2018-04-26T07:48:06.132Z,20.80
2018-04-26T07:49:11.098Z,20.70
2018-04-26T07:50:16.150Z,20.70
2018-04-26T07:51:21.089Z,20.70
2018-04-26T07:52:26.047Z,20.70
2018-04-26T07:53:31.083Z,20.70
2018-04-26T07:54:36.086Z,20.70
2018-04-26T07:55:41.055Z,20.70
2018-04-26T07:56:46.081Z,20.70
2018-04-26T07:57:51.100Z,20.70
2018-04-26T07:58:55.824Z,20.70
2018-04-26T08:00:00.557Z,20.70
2018-04-26T08:01:05.572Z,20.70
2018-04-26T08:02:10.269Z,20.70
2018-04-26T08:03:15.423Z,20.70
2018-04-26T08:04:20.511Z,20.70
2018-04-26T08:05:25.194Z,20.70
2018-04-26T08:06:29.916Z,20.70
2018-04-26T08:07:34.943Z,20.70
2018-04-26T08:08:39.855Z,20.70
2018-04-26T08:09:44.633Z,20.70
2018-04-26T08:10:49.300Z,20.70
2018-04-26T08:11:54.391Z,20.70
2018-04-26T08:12:59.492Z,20.70
2018-04-26T08:14:04.283Z,20.70
2018-04-26T08:15:09.224Z,20.80
2018-04-26T08:16:14.227Z,20.70
2018-04-26T08:17:19.010Z,20.70
2018-04-26T08:18:23.953Z,20.70
2018-04-26T08:19:28.905Z,20.70
2018-04-26T08:20:33.927Z,20.70
2018-04-26T08:21:38.857Z,20.70
2018-04-26T08:22:43.788Z,20.70
2018-04-26T08:23:48.712Z,20.70
2018-04-26T08:24:53.742Z,20.70
2018-04-26T08:25:58.419Z,20.70
2018-04-26T08:27:03.136Z,20.70
2018-04-26T08:28:08.226Z,20.70
2018-04-26T08:29:13.117Z,20.70
2018-04-26T08:30:18.610Z,20.70
2018-04-26T08:31:23.504Z,20.70
2018-04-26T08:32:28.632Z,20.70
2018-04-26T08:33:33.770Z,20.70
2018-04-26T08:34:38.443Z,20.70
2018-04-26T08:35:43.132Z,20.70
2018-04-26T08:36:48.143Z,20.70
2018-04-26T08:37:52.902Z,20.70
2018-04-26T08:38:57.585Z,20.70
2018-04-26T08:40:02.360Z,20.70
2018-04-26T08:41:07.303Z,20.70
2018-04-26T08:42:12.104Z,20.70
2018-04-26T08:43:16.993Z,20.70
2018-04-26T08:44:21.848Z,20.70
2018-04-26T08:45:26.751Z,20.70
2018-04-26T08:46:31.544Z,20.70
2018-04-26T08:47:36.536Z,20.70
2018-04-26T08:48:41.715Z,20.70
2018-04-26T08:49:46.773Z,20.60
2018-04-26T08:50:51.575Z,20.70
2018-04-26T08:51:56.582Z,20.70
2018-04-26T08:53:01.779Z,20.60
2018-04-26T08:54:07.046Z,20.60
2018-04-26T08:55:11.924Z,20.70
2018-04-26T08:56:16.953Z,20.70
2018-04-26T08:57:21.983Z,20.70
2018-04-26T08:58:27.291Z,20.70
2018-04-26T08:59:32.301Z,20.70
2018-04-26T09:00:37.196Z,20.60
2018-04-26T09:01:42.029Z,20.60
2018-04-26T09:02:46.974Z,20.60
2018-04-26T09:03:52.059Z,20.70
2018-04-26T09:04:57.153Z,20.60
2018-04-26T09:06:01.903Z,20.70
2018-04-26T09:07:06.711Z,20.70
2018-04-26T09:08:11.604Z,20.70
2018-04-26T09:09:16.301Z,20.60
2018-04-26T09:10:21.146Z,20.60
2018-04-26T09:11:26.267Z,20.60
2018-04-26T09:12:31.318Z,20.70
2018-04-26T09:13:36.096Z,20.70
2018-04-26T09:14:41.116Z,20.70
2018-04-26T09:15:45.867Z,20.70
2018-04-26T09:16:50.823Z,20.70
2018-04-26T09:17:55.907Z,20.70
2018-04-26T09:19:00.722Z,20.70
2018-04-26T09:20:05.637Z,20.60
2018-04-26T09:21:10.538Z,20.60
2018-04-26T09:22:15.401Z,20.70
2018-04-26T09:23:20.374Z,20.70
2018-04-26T09:24:25.159Z,20.70
2018-04-26T09:25:29.978Z,20.60
2018-04-26T09:26:35.183Z,20.70
2018-04-26T09:27:40.035Z,20.60
2018-04-26T09:28:44.769Z,20.60
2018-04-26T09:29:49.859Z,20.60
2018-04-26T09:30:54.970Z,20.60
2018-04-26T09:31:59.921Z,20.60
2018-04-26T09:33:05.122Z,20.60
2018-04-26T09:34:09.920Z,20.60
2018-04-26T09:35:14.672Z,20.60
2018-04-26T09:36:19.646Z,20.60
2018-04-26T09:37:24.368Z,20.60
2018-04-26T09:38:29.543Z,20.60
2018-04-26T09:39:34.534Z,20.60
2018-04-26T09:40:39.412Z,20.60
2018-04-26T09:41:44.246Z,20.60
2018-04-26T09:42:49.091Z,20.60
2018-04-26T09:43:53.946Z,20.60
2018-04-26T09:44:58.850Z,20.60
2018-04-26T09:46:03.882Z,20.60
2018-04-26T09:47:08.951Z,20.60
2018-04-26T09:48:14.058Z,20.60
2018-04-26T09:49:18.935Z,20.60
2018-04-26T09:50:24.026Z,20.60
2018-04-26T09:51:28.840Z,20.60
2018-04-26T09:52:33.739Z,20.60
2018-04-26T09:53:38.446Z,20.60
2018-04-26T09:54:43.328Z,20.60
2018-04-26T09:55:48.044Z,20.60
2018-04-26T09:56:52.751Z,20.60
2018-04-26T09:57:57.635Z,20.60
2018-04-26T09:59:02.736Z,20.50
2018-04-26T10:00:07.865Z,20.60
2018-04-26T10:01:12.548Z,20.50
2018-04-26T10:02:17.512Z,20.60
2018-04-26T10:03:22.217Z,20.60
2018-04-26T10:04:27.119Z,20.60
2018-04-26T10:05:32.168Z,20.60
2018-04-26T10:06:37.036Z,20.60
2018-04-26T10:07:41.976Z,20.70
2018-04-26T10:08:46.975Z,20.60
2018-04-26T10:09:51.959Z,20.70
2018-04-26T10:10:57.041Z,20.70
2018-04-26T10:12:02.100Z,20.70
2018-04-26T10:13:07.061Z,20.70
2018-04-26T10:14:12.090Z,20.70
2018-04-26T10:15:16.939Z,20.70
2018-04-26T10:16:22.634Z,20.80
2018-04-26T10:17:27.610Z,20.80
2018-04-26T10:18:32.362Z,20.80
2018-04-26T10:19:37.208Z,20.70
2018-04-26T10:20:42.065Z,20.80
2018-04-26T10:21:46.791Z,20.70
2018-04-26T10:22:51.714Z,20.80
2018-04-26T10:23:56.826Z,20.80
2018-04-26T10:25:01.921Z,20.70
2018-04-26T10:26:07.056Z,20.70
2018-04-26T10:27:12.089Z,20.80
2018-04-26T10:28:17.060Z,20.70
2018-04-26T10:29:22.066Z,20.80
2018-04-26T10:30:26.987Z,20.70
2018-04-26T10:31:32.203Z,20.80
2018-04-26T10:32:37.335Z,20.80
2018-04-26T10:33:42.094Z,20.80
2018-04-26T10:34:46.999Z,20.80
2018-04-26T10:35:51.951Z,20.80
2018-04-26T10:36:56.815Z,20.80
2018-04-26T10:38:01.856Z,20.80
2018-04-26T10:39:06.823Z,20.80
2018-04-26T10:40:11.832Z,20.80
2018-04-26T10:41:16.723Z,20.80
2018-04-26T10:42:21.719Z,20.80
2018-04-26T10:43:26.688Z,20.80
2018-04-26T10:44:31.747Z,20.80
2018-04-26T10:45:36.524Z,20.70
2018-04-26T10:46:41.347Z,20.70
2018-04-26T10:47:46.396Z,20.70
2018-04-26T10:48:51.562Z,20.70
2018-04-26T10:49:56.453Z,20.70
2018-04-26T10:51:01.307Z,20.70
2018-04-26T10:52:06.401Z,20.70
2018-04-26T10:53:11.425Z,20.70
2018-04-26T10:54:16.415Z,20.70
2018-04-26T10:55:21.510Z,20.70
2018-04-26T10:56:26.673Z,20.70
2018-04-26T10:57:31.816Z,20.70
2018-04-26T10:58:36.906Z,20.70
2018-04-26T10:59:41.690Z,20.70
2018-04-26T11:00:46.583Z,20.70
2018-04-26T11:01:51.519Z,20.70
2018-04-26T11:02:56.580Z,20.70
2018-04-26T11:04:01.434Z,20.70
2018-04-26T11:05:06.353Z,20.70
2018-04-26T11:06:11.103Z,20.70
2018-04-26T11:07:16.061Z,20.70
2018-04-26T11:08:20.949Z,20.70
2018-04-26T11:09:25.838Z,20.70
2018-04-26T11:10:30.763Z,20.70
2018-04-26T11:11:35.596Z,20.70
2018-04-26T11:12:40.525Z,20.70
2018-04-26T11:13:45.401Z,20.70
2018-04-26T11:14:50.326Z,20.70
2018-04-26T11:15:55.176Z,20.80
2018-04-26T11:16:59.918Z,20.80
2018-04-26T11:18:04.794Z,20.80
2018-04-26T11:19:09.975Z,20.80
2018-04-26T11:20:14.654Z,20.80
2018-04-26T11:21:19.492Z,20.80
2018-04-26T11:22:24.179Z,20.80
2018-04-26T11:23:29.463Z,20.80
2018-04-26T11:24:34.317Z,20.80
2018-04-26T11:25:39.284Z,20.80
2018-04-26T11:26:44.207Z,20.80
2018-04-26T11:27:49.023Z,20.90
2018-04-26T11:28:53.958Z,20.80
2018-04-26T11:29:58.954Z,20.80
2018-04-26T11:31:03.883Z,20.80
2018-04-26T11:32:08.508Z,20.80
2018-04-26T11:33:13.382Z,20.80
2018-04-26T11:34:18.275Z,20.80
2018-04-26T11:35:23.431Z,20.80
2018-04-26T11:36:28.457Z,20.80
2018-04-26T11:37:33.567Z,20.90
2018-04-26T11:38:38.457Z,20.80
2018-04-26T11:39:44.384Z,20.90
2018-04-26T11:40:49.180Z,20.90
2018-04-26T11:41:54.159Z,20.90
2018-04-26T11:42:59.165Z,20.90
2018-04-26T11:44:04.676Z,20.90
2018-04-26T11:45:09.680Z,20.90
2018-04-26T11:46:14.655Z,20.90
2018-04-26T11:47:19.669Z,20.90
2018-04-26T11:48:24.447Z,20.90
2018-04-26T11:49:29.280Z,20.90
2018-04-26T11:50:34.157Z,20.90
2018-04-26T11:51:38.989Z,20.90
2018-04-26T11:52:44.221Z,20.90
2018-04-26T11:53:49.254Z,20.90
2018-04-26T11:54:54.245Z,20.90
2018-04-26T11:55:59.222Z,20.90
2018-04-26T11:57:04.262Z,20.90
2018-04-26T11:58:09.460Z,20.90
2018-04-26T11:59:14.512Z,20.90
2018-04-26T12:00:19.406Z,20.90
2018-04-26T12:01:24.431Z,20.90
2018-04-26T12:02:29.523Z,20.90
2018-04-26T12:03:34.476Z,20.90
2018-04-26T12:04:39.614Z,20.90
2018-04-26T12:05:44.652Z,20.90
2018-04-26T12:06:50.352Z,20.90
2018-04-26T12:07:55.124Z,20.90
2018-04-26T12:08:59.911Z,20.90
2018-04-26T12:10:04.776Z,20.90
2018-04-26T12:11:09.697Z,20.90
2018-04-26T12:12:14.575Z,21.00
2018-04-26T12:13:19.559Z,21.00
2018-04-26T12:14:24.594Z,21.00
2018-04-26T12:15:29.463Z,21.00
2018-04-26T12:16:34.545Z,21.00
2018-04-26T12:17:39.630Z,21.00
2018-04-26T12:18:44.567Z,21.00
2018-04-26T12:19:49.411Z,21.00
2018-04-26T12:20:54.181Z,21.00
2018-04-26T12:21:59.111Z,21.00
2018-04-26T12:23:03.799Z,21.00
2018-04-26T12:24:08.988Z,21.00
2018-04-26T12:25:13.553Z,20.90
2018-04-26T12:26:18.418Z,20.90
2018-04-26T12:27:23.444Z,21.00
2018-04-26T12:28:28.340Z,21.00
2018-04-26T12:29:33.053Z,21.00
2018-04-26T12:30:38.103Z,20.90
2018-04-26T12:31:43.136Z,20.90
2018-04-26T12:32:47.952Z,21.00
2018-04-26T12:33:53.052Z,20.90
2018-04-26T12:34:58.003Z,20.90
2018-04-26T12:36:03.172Z,20.90
2018-04-26T12:37:08.180Z,20.90
2018-04-26T12:38:13.189Z,20.90
2018-04-26T12:39:18.206Z,20.90
2018-04-26T12:40:23.389Z,20.90
2018-04-26T12:41:28.380Z,20.90
2018-04-26T12:42:33.357Z,20.90
2018-04-26T12:43:38.544Z,20.90
2018-04-26T12:44:44.326Z,21.00
2018-04-26T12:45:49.472Z,20.90
2018-04-26T12:46:54.600Z,21.00
2018-04-26T12:47:59.369Z,21.00
2018-04-26T12:49:04.283Z,21.00
2018-04-26T12:50:09.171Z,21.00
2018-04-26T12:51:14.090Z,21.00
2018-04-26T12:52:18.986Z,21.00
2018-04-26T12:53:24.036Z,21.00
2018-04-26T12:54:29.003Z,21.00
2018-04-26T12:55:33.811Z,21.00
2018-04-26T12:56:38.825Z,21.00
2018-04-26T12:57:43.864Z,21.00
2018-04-26T12:58:48.715Z,21.00
2018-04-26T12:59:53.731Z,21.00
2018-04-26T13:00:58.606Z,21.00
2018-04-26T13:02:03.618Z,21.00
2018-04-26T13:03:09.072Z,21.00
2018-04-26T13:04:13.888Z,21.00
2018-04-26T13:05:19.061Z,21.00
2018-04-26T13:06:24.027Z,21.00
2018-04-26T13:07:28.976Z,21.00
2018-04-26T13:08:33.826Z,21.00
2018-04-26T13:09:38.836Z,21.10
2018-04-26T13:10:44.003Z,21.00
2018-04-26T13:11:48.909Z,21.00
2018-04-26T13:12:54.186Z,21.00
2018-04-26T13:13:59.386Z,21.00
2018-04-26T13:15:04.165Z,21.10
2018-04-26T13:16:09.158Z,21.00
2018-04-26T13:17:14.403Z,21.00
2018-04-26T13:18:19.830Z,21.10
2018-04-26T13:19:24.975Z,21.00
2018-04-26T13:20:29.942Z,21.10
2018-04-26T13:21:35.020Z,21.00
2018-04-26T13:22:39.968Z,21.00
2018-04-26T13:23:44.949Z,21.00
2018-04-26T13:24:49.756Z,21.10
2018-04-26T13:25:54.814Z,21.00
2018-04-26T13:26:59.810Z,21.10
2018-04-26T13:28:04.989Z,21.00
2018-04-26T13:29:09.954Z,21.10
2018-04-26T13:30:14.930Z,21.00
2018-04-26T13:31:20.315Z,21.00
2018-04-26T13:32:25.017Z,21.00
2018-04-26T13:33:29.816Z,21.00
2018-04-26T13:34:34.617Z,21.00
2018-04-26T13:35:39.541Z,21.00
2018-04-26T13:36:44.673Z,21.00
2018-04-26T13:37:49.931Z,21.00
2018-04-26T13:38:55.046Z,21.00
2018-04-26T13:40:00.116Z,21.00
2018-04-26T13:41:04.992Z,21.00
2018-04-26T13:42:09.700Z,21.00
2018-04-26T13:43:14.488Z,21.00
2018-04-26T13:44:19.509Z,21.00
2018-04-26T13:45:24.463Z,21.00
2018-04-26T13:46:29.750Z,21.00
2018-04-26T13:47:34.777Z,21.00
2018-04-26T13:48:39.714Z,21.00
2018-04-26T13:49:44.559Z,21.00
2018-04-26T13:50:49.466Z,21.00
2018-04-26T13:51:55.058Z,21.00
2018-04-26T13:52:59.888Z,21.00
2018-04-26T13:54:04.802Z,21.00
2018-04-26T13:55:10.005Z,21.00
2018-04-26T13:56:14.899Z,21.00
2018-04-26T13:57:19.899Z,21.00